Time;durP1;ratioP1;P1;durP2;ratioP2;P2;SDS_P1;SDS_P2;PMS_P1;PMS_P2;Temp;Humidity;BMP_temperature;BMP_pressure;BME280_temperature;BME280_humidity;BME280_pressure;Samples;Min_cycle;Max_cycle;Signal;HPM_P1;HPM_P2
2022/08/27 00:00:23;;;;;;;;;;;;;;;24.47;100.00;97524.13;5124532;28;19973;-63
2022/08/27 00:02:49;;;;;;;;;;;;;;;24.37;100.00;97523.91;5124407;28;19924;-63
2022/08/27 00:05:17;;;;;;;;;;;;;;;24.38;100.00;97534.50;5121045;28;20318;-62
2022/08/27 00:07:44;;;;;;;;;;;;;;;24.48;100.00;97530.38;5120701;28;19966;-62
2022/08/27 00:10:11;;;;;;;;;;;;;;;24.56;100.00;97535.59;5122731;28;19970;-63
2022/08/27 00:12:40;;;;;;;;;;;;;;;24.65;100.00;97533.41;5124137;28;19963;-63
2022/08/27 00:15:07;;;;;;;;;;;;;;;24.67;100.00;97536.56;5103963;28;19923;-62
2022/08/27 00:17:34;;;;;;;;;;;;;;;24.64;100.00;97531.03;5120484;28;19970;-62
2022/08/27 00:20:00;;;;;;;;;;;;;;;24.68;100.00;97534.63;5121322;28;19951;-62
2022/08/27 00:22:27;;;;;;;;;;;;;;;24.68;100.00;97537.34;5123769;28;20140;-63
2022/08/27 00:24:53;;;;;;;;;;;;;;;24.69;100.00;97537.00;5125906;28;19959;-63
2022/08/27 00:27:19;;;;;;;;;;;;;;;24.71;100.00;97540.16;5111891;28;19931;-63
2022/08/27 00:29:47;;;;;;;;;;;;;;;24.71;100.00;97544.81;5111738;28;20012;-63
2022/08/27 00:32:14;;;;;;;;;;;;;;;24.73;100.00;97552.66;5111521;28;19955;-63
2022/08/27 00:34:40;;;;;;;;;;;;;;;24.65;100.00;97549.78;5111921;28;19959;-64
2022/08/27 00:37:07;;;;;;;;;;;;;;;24.65;100.00;97549.00;5111520;28;19927;-62
2022/08/27 00:39:35;;;;;;;;;;;;;;;24.68;100.00;97549.06;5111878;28;19983;-62
2022/08/27 00:42:01;;;;;;;;;;;;;;;24.69;100.00;97556.13;5111533;28;19930;-62
2022/08/27 00:44:27;;;;;;;;;;;;;;;24.68;100.00;97554.53;5111530;28;19920;-62
2022/08/27 00:46:56;;;;;;;;;;;;;;;24.69;100.00;97553.38;5111478;28;19991;-61
2022/08/27 00:49:25;;;;;;;;;;;;;;;24.70;100.00;97557.69;5111315;28;19924;-62
2022/08/27 00:51:53;;;;;;;;;;;;;;;24.64;100.00;97558.34;5110859;28;19993;-63
2022/08/27 00:54:20;;;;;;;;;;;;;;;24.61;100.00;97559.06;5123309;28;19959;-62
2022/08/27 00:56:47;;;;;;;;;;;;;;;24.62;100.00;97561.44;5123195;28;19955;-62
2022/08/27 00:59:15;;;;;;;;;;;;;;;24.65;100.00;97558.00;5120239;28;19978;-63
2022/08/27 01:02:17;;;;;;;;;;;;;;;24.64;100.00;97547.41;5119538;28;19931;-61
2022/08/27 01:04:31;;;;;;;;;;;;;;;24.57;100.00;97553.53;5119410;28;19931;-62
2022/08/27 01:06:58;;;;;;;;;;;;;;;24.54;100.00;97551.53;5119960;28;19979;-61
2022/08/27 01:09:25;;;;;;;;;;;;;;;24.58;100.00;97554.31;5123202;28;19924;-61
2022/08/27 01:11:52;;;;;;;;;;;;;;;24.56;100.00;97551.19;5122876;28;19948;-66
2022/08/27 01:14:19;;;;;;;;;;;;;;;24.52;100.00;97555.78;5110936;28;19932;-61
2022/08/27 01:16:47;;;;;;;;;;;;;;;24.48;100.00;97557.66;5110954;28;19967;-62
2022/08/27 01:19:18;;;;;;;;;;;;;;;24.48;100.00;97558.44;5110809;28;19928;-63
2022/08/27 01:21:50;;;;;;;;;;;;;;;24.45;100.00;97553.69;5111033;28;19955;-62
2022/08/27 01:24:33;;;;;;;;;;;;;;;24.43;100.00;97547.03;5115837;28;19979;-61
2022/08/27 01:27:00;;;;;;;;;;;;;;;24.45;100.00;97550.97;5121659;28;19923;-61
2022/08/27 01:29:27;;;;;;;;;;;;;;;24.51;100.00;97546.78;5119221;28;20003;-62
2022/08/27 01:31:55;;;;;;;;;;;;;;;24.43;100.00;97550.56;5101089;28;20010;-62
2022/08/27 01:34:21;;;;;;;;;;;;;;;24.36;100.00;97547.69;5119264;28;19976;-62
2022/08/27 01:36:48;;;;;;;;;;;;;;;24.36;100.00;97553.16;5119123;28;19959;-61
2022/08/27 01:39:14;;;;;;;;;;;;;;;24.38;100.00;97556.31;5121797;28;19983;-62
2022/08/27 01:41:42;;;;;;;;;;;;;;;24.36;100.00;97555.06;5122665;28;19966;-61
2022/08/27 01:44:08;;;;;;;;;;;;;;;24.29;100.00;97558.50;5120420;28;19928;-62
2022/08/27 01:46:35;;;;;;;;;;;;;;;24.34;100.00;97562.84;5119067;28;19920;-62
2022/08/27 01:49:01;;;;;;;;;;;;;;;24.37;100.00;97564.84;5119866;28;19959;-61
2022/08/27 01:51:27;;;;;;;;;;;;;;;24.33;100.00;97564.78;5122415;28;20001;-62
2022/08/27 01:53:54;;;;;;;;;;;;;;;24.42;100.00;97561.81;5122293;28;19958;-62
2022/08/27 01:56:20;;;;;;;;;;;;;;;24.35;100.00;97562.50;5122396;28;19962;-62
2022/08/27 01:58:48;;;;;;;;;;;;;;;24.41;100.00;97561.06;5122310;28;19924;-62
2022/08/27 02:01:15;;;;;;;;;;;;;;;;;;5119409;28;19991;-62
2022/08/27 02:03:41;;;;;;;;;;;;;;;24.36;100.00;97564.06;5122070;28;19956;-62
2022/08/27 02:06:08;;;;;;;;;;;;;;;24.29;100.00;97563.94;5124688;28;20008;-62
2022/08/27 02:08:35;;;;;;;;;;;;;;;24.33;100.00;97559.31;5126446;28;19923;-61
2022/08/27 02:11:02;;;;;;;;;;;;;;;24.31;100.00;97556.19;5125008;28;19927;-62
2022/08/27 02:13:28;;;;;;;;;;;;;;;24.40;100.00;97561.41;5122718;28;19951;-62
2022/08/27 02:15:56;;;;;;;;;;;;;;;24.34;100.00;97560.91;5122822;28;19932;-62
2022/08/27 02:18:22;;;;;;;;;;;;;;;24.36;100.00;97563.25;5126244;28;19979;-62
2022/08/27 02:20:49;;;;;;;;;;;;;;;24.36;100.00;97564.06;5126157;28;20002;-62
2022/08/27 02:23:15;;;;;;;;;;;;;;;24.35;100.00;97554.31;5123047;28;19991;-62
2022/08/27 02:25:42;;;;;;;;;;;;;;;24.36;100.00;97553.16;5126906;27;19970;-62
2022/08/27 02:28:08;;;;;;;;;;;;;;;24.30;100.00;97542.88;5124591;28;19934;-61
2022/08/27 02:30:36;;;;;;;;;;;;;;;24.29;100.00;97541.31;5125963;28;19958;-61
2022/08/27 02:33:04;;;;;;;;;;;;;;;24.27;100.00;97546.31;5124683;28;19924;-61
2022/08/27 02:35:32;;;;;;;;;;;;;;;24.27;100.00;97555.31;5122328;28;19927;-62
2022/08/27 02:37:58;;;;;;;;;;;;;;;24.29;100.00;97552.22;5122537;28;19921;-61
2022/08/27 02:40:25;;;;;;;;;;;;;;;24.26;100.00;97558.41;5125796;28;19924;-61
2022/08/27 02:42:52;;;;;;;;;;;;;;;24.31;100.00;97561.63;5125640;28;19946;-61
2022/08/27 02:45:19;;;;;;;;;;;;;;;23.91;100.00;97563.91;5122347;28;19955;-62
2022/08/27 02:47:45;;;;;;;;;;;;;;;23.82;100.00;97563.31;5122129;28;20404;-62
2022/08/27 02:50:14;;;;;;;;;;;;;;;23.78;100.00;97565.97;5124462;28;19983;-62
2022/08/27 02:52:40;;;;;;;;;;;;;;;24.03;100.00;97572.75;5125737;28;19919;-61
2022/08/27 02:55:07;;;;;;;;;;;;;;;24.02;100.00;97570.34;5125682;28;20441;-62
2022/08/27 02:57:33;;;;;;;;;;;;;;;24.11;100.00;97570.97;5122061;28;19924;-62
2022/08/27 03:00:00;;;;;;;;;;;;;;;23.94;100.00;97566.72;5104694;28;19920;-61
2022/08/27 03:02:26;;;;;;;;;;;;;;;23.96;100.00;97574.53;5125312;28;19966;-61
2022/08/27 03:04:53;;;;;;;;;;;;;;;23.91;100.00;97575.59;5125478;28;19947;-62
2022/08/27 03:07:23;;;;;;;;;;;;;;;23.72;100.00;97567.41;5121960;28;19947;-61
2022/08/27 03:09:49;;;;;;;;;;;;;;;23.73;100.00;97562.75;5121874;28;19924;-62
2022/08/27 03:12:15;;;;;;;;;;;;;;;23.66;100.00;97566.09;5124627;28;19947;-61
2022/08/27 03:14:42;;;;;;;;;;;;;;;23.70;100.00;97563.47;5124634;28;20646;-62
2022/08/27 03:19:52;;;;;;;;;;;;;;;23.63;100.00;97567.59;5121475;28;19974;-61
2022/08/27 03:22:20;;;;;;;;;;;;;;;23.67;100.00;97564.16;5124716;28;19934;-61
2022/08/27 03:24:47;;;;;;;;;;;;;;;23.67;100.00;97563.00;5129259;27;19955;-63
2022/08/27 03:27:14;;;;;;;;;;;;;;;23.71;100.00;97575.91;5121878;28;19962;-62
2022/08/27 03:29:40;;;;;;;;;;;;;;;23.67;100.00;97566.91;5121455;28;19975;-61
2022/08/27 03:32:06;;;;;;;;;;;;;;;23.72;100.00;97566.59;5122819;28;19959;-62
2022/08/27 03:34:33;;;;;;;;;;;;;;;23.76;100.00;97572.94;5124778;28;19920;-62
2022/08/27 03:37:00;;;;;;;;;;;;;;;23.20;100.00;97573.19;5123513;28;19930;-62
2022/08/27 03:39:27;;;;;;;;;;;;;;;23.02;100.00;97569.25;5120827;28;19931;-61
2022/08/27 03:41:54;;;;;;;;;;;;;;;23.20;100.00;97567.75;5120625;28;19980;-60
2022/08/27 03:44:20;;;;;;;;;;;;;;;23.36;100.00;97567.72;5121024;28;19920;-62
2022/08/27 03:46:47;;;;;;;;;;;;;;;23.49;100.00;97571.94;5120825;28;19970;-61
2022/08/27 03:49:13;;;;;;;;;;;;;;;23.57;100.00;97563.56;5123409;28;19928;-61
2022/08/27 03:51:40;;;;;;;;;;;;;;;23.46;100.00;97567.97;5124180;28;19987;-61
2022/08/27 03:54:06;;;;;;;;;;;;;;;23.54;100.00;97566.22;5124038;28;19999;-62
2022/08/27 03:56:38;;;;;;;;;;;;;;;23.57;100.00;97555.41;5124497;28;19984;-62
2022/08/27 03:59:04;;;;;;;;;;;;;;;23.57;100.00;97555.41;5122592;28;19931;-60
2022/08/27 04:01:31;;;;;;;;;;;;;;;23.59;100.00;97552.31;5120363;28;19946;-61
2022/08/27 04:03:58;;;;;;;;;;;;;;;23.58;100.00;97550.75;5120950;28;19951;-61
2022/08/27 04:06:24;;;;;;;;;;;;;;;23.63;100.00;97547.72;5124040;28;19927;-62
2022/08/27 04:08:50;;;;;;;;;;;;;;;23.59;100.00;97547.66;5124030;28;19962;-62
2022/08/27 04:11:17;;;;;;;;;;;;;;;23.70;100.00;97545.16;5120697;28;19963;-61
2022/08/27 04:13:44;;;;;;;;;;;;;;;23.67;100.00;97538.47;5120326;28;19959;-61
2022/08/27 04:16:11;;;;;;;;;;;;;;;23.69;100.00;97542.78;5122266;28;19966;-61
2022/08/27 04:18:38;;;;;;;;;;;;;;;23.67;100.00;97545.09;5123636;28;19963;-61
2022/08/27 04:21:07;;;;;;;;;;;;;;;23.61;100.00;97544.59;5122133;28;20327;-62
2022/08/27 04:23:33;;;;;;;;;;;;;;;23.51;100.00;97551.38;5120068;28;19920;-61
2022/08/27 04:26:04;;;;;;;;;;;;;;;23.45;100.00;97547.34;5124590;27;19924;-61
2022/08/27 04:28:30;;;;;;;;;;;;;;;23.49;100.00;97548.19;5123591;28;19925;-62
2022/08/27 04:30:58;;;;;;;;;;;;;;;23.57;100.00;97552.69;5123007;28;20007;-61
2022/08/27 04:33:24;;;;;;;;;;;;;;;23.58;100.00;97556.19;5119849;28;19924;-62
2022/08/27 04:35:56;;;;;;;;;;;;;;;23.62;100.00;97557.84;5119661;28;20404;-61
2022/08/27 04:38:23;;;;;;;;;;;;;;;23.65;100.00;97557.13;5111358;28;19943;-62
2022/08/27 04:43:33;;;;;;;;;;;;;;;23.65;100.00;97561.78;5111227;28;19924;-62
2022/08/27 04:46:01;;;;;;;;;;;;;;;23.65;100.00;97556.31;5111275;28;19924;-61
2022/08/27 04:48:27;;;;;;;;;;;;;;;23.69;100.00;97556.41;5111005;28;19928;-61
2022/08/27 04:50:53;;;;;;;;;;;;;;;23.72;100.00;97559.22;5111060;28;19959;-61
2022/08/27 04:53:20;;;;;;;;;;;;;;;23.65;100.00;97557.13;5111135;28;19924;-61
2022/08/27 04:55:47;;;;;;;;;;;;;;;23.57;100.00;97566.31;5121350;28;19924;-61
2022/08/27 04:58:14;;;;;;;;;;;;;;;23.54;100.00;97568.94;5121772;28;19993;-61
2022/08/27 05:00:41;;;;;;;;;;;;;;;23.53;100.00;97570.88;5122823;28;19927;-61
2022/08/27 05:03:09;;;;;;;;;;;;;;;23.60;100.00;97565.59;5120879;28;19919;-62
2022/08/27 05:05:35;;;;;;;;;;;;;;;23.60;100.00;97571.03;5119318;28;19925;-62
2022/08/27 05:08:02;;;;;;;;;;;;;;;23.58;100.00;97581.50;5120050;28;19955;-62
2022/08/27 05:10:28;;;;;;;;;;;;;;;23.62;100.00;97574.19;5122468;28;19966;-62
2022/08/27 05:12:54;;;;;;;;;;;;;;;23.50;100.00;97579.75;5122587;28;19924;-62
2022/08/27 05:15:21;;;;;;;;;;;;;;;23.50;100.00;97581.69;5119238;28;19956;-62
2022/08/27 05:17:48;;;;;;;;;;;;;;;23.44;100.00;97570.28;5119291;28;19942;-63
2022/08/27 05:20:15;;;;;;;;;;;;;;;23.54;100.00;97569.75;5122050;28;19978;-62
2022/08/27 05:22:42;;;;;;;;;;;;;;;23.60;100.00;97565.59;5122654;28;19934;-62
2022/08/27 05:25:10;;;;;;;;;;;;;;;23.65;100.00;97573.47;5124903;27;19963;-62
2022/08/27 05:27:36;;;;;;;;;;;;;;;23.62;100.00;97568.75;5119197;28;19931;-61
2022/08/27 05:30:02;;;;;;;;;;;;;;;23.70;100.00;97569.69;5119912;28;19967;-61
2022/08/27 05:32:29;;;;;;;;;;;;;;;23.51;100.00;97562.28;5122396;28;20419;-61
2022/08/27 05:34:56;;;;;;;;;;;;;;;23.34;100.00;97559.88;5122060;28;19923;-61
2022/08/27 05:37:23;;;;;;;;;;;;;;;23.42;100.00;97561.69;5118414;28;19920;-61
2022/08/27 05:39:50;;;;;;;;;;;;;;;23.40;100.00;97561.22;5118928;28;19924;-61
2022/08/27 05:42:17;;;;;;;;;;;;;;;23.44;100.00;97562.09;5121548;28;19951;-62
2022/08/27 05:44:43;;;;;;;;;;;;;;;23.42;100.00;97560.88;5122236;28;19928;-61
2022/08/27 05:47:10;;;;;;;;;;;;;;;23.53;100.00;97559.97;5119861;28;19924;-61
2022/08/27 05:49:37;;;;;;;;;;;;;;;23.56;100.00;97553.81;5118586;28;19996;-62
2022/08/27 05:52:07;;;;;;;;;;;;;;;23.56;100.00;97559.25;5119805;28;19924;-61
2022/08/27 05:54:34;;;;;;;;;;;;;;;23.55;100.00;97563.13;5119145;28;20000;-62
2022/08/27 05:57:01;;;;;;;;;;;;;;;23.61;100.00;97560.94;5118552;28;19984;-62
2022/08/27 06:02:11;;;;;;;;;;;;;;;23.75;100.00;97560.44;5121287;28;19931;-62
2022/08/27 06:04:38;;;;;;;;;;;;;;;23.72;100.00;97556.50;5122222;28;19919;-62
2022/08/27 06:07:05;;;;;;;;;;;;;;;23.52;100.00;97563.06;5120595;28;19963;-61
2022/08/27 06:09:31;;;;;;;;;;;;;;;23.60;100.00;97560.16;5118640;28;19925;-63
2022/08/27 06:12:00;;;;;;;;;;;;;;;23.67;100.00;97560.28;5118838;28;19988;-62
2022/08/27 06:14:26;;;;;;;;;;;;;;;23.49;100.00;97559.09;5121872;28;19935;-61
2022/08/27 06:16:52;;;;;;;;;;;;;;;23.57;100.00;97549.94;5122068;28;19927;-61
2022/08/27 06:19:19;;;;;;;;;;;;;;;23.53;100.00;97554.53;5118506;28;19967;-62
2022/08/27 06:21:45;;;;;;;;;;;;;;;23.67;100.00;97556.00;5118567;28;19967;-62
2022/08/27 06:24:12;;;;;;;;;;;;;;;23.69;100.00;97550.97;5125246;28;19963;-61
2022/08/27 06:26:39;;;;;;;;;;;;;;;23.69;100.00;97551.75;5121759;28;19924;-62
2022/08/27 06:29:08;;;;;;;;;;;;;;;23.73;100.00;97554.56;5120332;28;19983;-62
2022/08/27 06:31:35;;;;;;;;;;;;;;;23.56;100.00;97553.81;5118487;28;19928;-62
2022/08/27 06:34:02;;;;;;;;;;;;;;;23.44;100.00;97556.66;5119352;28;19977;-62
2022/08/27 06:36:29;;;;;;;;;;;;;;;23.13;100.00;97552.00;5121806;28;19924;-63
2022/08/27 06:38:56;;;;;;;;;;;;;;;23.45;100.00;97552.78;5121662;28;19931;-61
2022/08/27 06:41:25;;;;;;;;;;;;;;;23.38;100.00;97558.03;5118365;28;19928;-61
2022/08/27 06:43:52;;;;;;;;;;;;;;;23.65;100.00;97562.56;5118145;28;20015;-62
2022/08/27 06:46:21;;;;;;;;;;;;;;;23.63;100.00;97562.16;5121430;28;19958;-62
2022/08/27 06:48:48;;;;;;;;;;;;;;;23.59;100.00;97568.66;5123178;28;19924;-62
2022/08/27 06:51:15;;;;;;;;;;;;;;;23.60;100.00;97564.81;5122387;28;19946;-63
2022/08/27 06:53:42;;;;;;;;;;;;;;;23.51;100.00;97573.19;5103991;28;19924;-62
2022/08/27 06:56:10;;;;;;;;;;;;;;;23.57;100.00;97571.75;5125008;28;19960;-62
2022/08/27 06:58:36;;;;;;;;;;;;;;;23.65;100.00;97573.47;5125059;28;19995;-61
2022/08/27 07:01:10;;;;;;;;;;;;;;;23.70;100.00;97577.09;5123815;28;19951;-61
2022/08/27 07:03:38;;;;;;;;;;;;;;;23.42;100.00;97574.50;5121216;28;19966;-62
2022/08/27 07:06:06;;;;;;;;;;;;;;;23.32;100.00;97578.53;5122674;28;19995;-62
2022/08/27 07:08:32;;;;;;;;;;;;;;;23.50;100.00;97582.50;5124923;28;19919;-62
2022/08/27 07:10:59;;;;;;;;;;;;;;;23.64;100.00;97595.66;5123720;27;19955;-62
2022/08/27 07:13:26;;;;;;;;;;;;;;;23.28;100.00;97594.00;5121288;28;19958;-62
2022/08/27 07:15:52;;;;;;;;;;;;;;;23.28;100.00;97595.94;5121234;28;19924;-62
2022/08/27 07:18:19;;;;;;;;;;;;;;;23.16;100.00;97598.75;5124526;28;20003;-62
2022/08/27 07:20:47;;;;;;;;;;;;;;;23.26;100.00;97596.31;5124747;28;19924;-62
2022/08/27 07:23:13;;;;;;;;;;;;;;;23.30;100.00;97605.34;5121912;28;19977;-63
2022/08/27 07:25:40;;;;;;;;;;;;;;;23.35;100.00;97610.53;5114729;28;19924;-62
2022/08/27 07:28:07;;;;;;;;;;;;;;;23.29;100.00;97605.69;5122666;28;19966;-61
2022/08/27 07:30:33;;;;;;;;;;;;;;;23.37;100.00;97610.97;5124358;28;19987;-62
2022/08/27 07:33:00;;;;;;;;;;;;;;;23.37;100.00;97605.50;5123607;28;20060;-62
2022/08/27 07:35:26;;;;;;;;;;;;;;;23.17;100.00;97619.41;5120689;28;20388;-62
2022/08/27 07:37:53;;;;;;;;;;;;;;;23.06;100.00;97611.75;5120265;28;19952;-61
2022/08/27 07:40:22;;;;;;;;;;;;;;;22.76;100.00;97612.53;5111423;28;20219;-62
2022/08/27 07:45:32;;;;;;;;;;;;;;;23.11;100.00;97622.41;5112189;28;19931;-62
2022/08/27 07:47:58;;;;;;;;;;;;;;;23.32;100.00;97630.31;5112131;28;19942;-62
2022/08/27 07:50:25;;;;;;;;;;;;;;;23.53;100.00;97622.66;5116314;28;19987;-62
2022/08/27 07:52:51;;;;;;;;;;;;;;;23.49;100.00;97629.16;5123970;28;19987;-62
2022/08/27 07:55:19;;;;;;;;;;;;;;;23.43;100.00;97625.13;5122990;28;19920;-62
2022/08/27 07:57:46;;;;;;;;;;;;;;;23.21;100.00;97629.25;5120417;28;19956;-62
2022/08/27 08:00:13;;;;;;;;;;;;;;;23.31;100.00;97636.88;5122893;28;19967;-63
2022/08/27 08:02:40;;;;;;;;;;;;;;;23.22;100.00;97638.22;5123458;28;19923;-62
2022/08/27 08:05:08;;;;;;;;;;;;;;;23.21;100.00;97636.66;5121947;28;19979;-62
2022/08/27 08:07:37;;;;;;;;;;;;;;;23.39;100.00;97638.69;5120353;28;19928;-61
2022/08/27 08:10:03;;;;;;;;;;;;;;;23.38;100.00;97639.00;5121062;28;19932;-62
2022/08/27 08:12:31;;;;;;;;;;;;;;;23.54;100.00;97639.81;5123684;28;19951;-62
2022/08/27 08:14:57;;;;;;;;;;;;;;;23.36;100.00;97638.56;5123194;28;19952;-62
2022/08/27 08:17:24;;;;;;;;;;;;;;;23.36;100.00;97644.81;5119971;28;19928;-62
2022/08/27 08:19:51;;;;;;;;;;;;;;;23.50;100.00;97642.47;5119902;28;19924;-61
2022/08/27 08:22:17;;;;;;;;;;;;;;;23.54;100.00;97639.81;5122932;28;19951;-62
2022/08/27 08:24:43;;;;;;;;;;;;;;;23.26;100.00;97637.16;5128186;27;19927;-61
2022/08/27 08:27:10;;;;;;;;;;;;;;;23.16;100.00;97643.13;5121059;28;19924;-62
2022/08/27 08:29:38;;;;;;;;;;;;;;;23.18;100.00;97654.47;5119474;28;19931;-61
2022/08/27 08:32:05;;;;;;;;;;;;;;;23.17;100.00;97642.00;5120923;28;19995;-61
2022/08/27 08:34:31;;;;;;;;;;;;;;;23.30;100.00;97638.06;5123124;28;19970;-62
2022/08/27 08:36:58;;;;;;;;;;;;;;;23.54;100.00;97632.44;5122387;28;19990;-61
2022/08/27 08:39:24;;;;;;;;;;;;;;;23.43;100.00;97636.81;5119339;28;19924;-62
2022/08/27 08:41:52;;;;;;;;;;;;;;;23.06;100.00;97643.66;5119590;28;19924;-62
2022/08/27 08:44:23;;;;;;;;;;;;;;;23.12;100.00;97644.97;5122749;28;19992;-61
2022/08/27 08:46:55;;;;;;;;;;;;;;;23.14;100.00;97642.72;5122893;28;19948;-62
2022/08/27 08:49:28;;;;;;;;;;;;;;;23.15;100.00;97640.78;5119463;28;19924;-62
2022/08/27 08:51:56;;;;;;;;;;;;;;;22.79;100.00;97636.34;5119138;28;19928;-61
2022/08/27 08:54:23;;;;;;;;;;;;;;;22.54;100.00;97632.91;5123259;28;19920;-62
2022/08/27 08:56:52;;;;;;;;;;;;;;;22.82;100.00;97632.91;5122880;28;19991;-61
2022/08/27 08:59:22;;;;;;;;;;;;;;;23.22;100.00;97636.28;5119739;28;19960;-61
2022/08/27 09:01:49;;;;;;;;;;;;;;;23.42;100.00;97635.25;5119337;28;19969;-61
2022/08/27 09:04:16;;;;;;;;;;;;;;;23.52;100.00;97639.38;5122108;28;19931;-62
2022/08/27 09:06:46;;;;;;;;;;;;;;;23.54;100.00;97643.34;5122711;28;19966;-61
2022/08/27 09:09:17;;;;;;;;;;;;;;;23.59;100.00;97640.34;5120271;28;19923;-62
2022/08/27 09:11:48;;;;;;;;;;;;;;;23.50;100.00;97636.22;5118746;28;19920;-62
2022/08/27 09:14:25;;;;;;;;;;;;;;;23.51;100.00;97627.69;5121872;28;19929;-61
2022/08/27 09:16:51;;;;;;;;;;;;;;;23.69;100.00;97632.75;5122705;28;19978;-61
2022/08/27 09:19:20;;;;;;;;;;;;;;;23.85;100.00;97628.84;5119444;28;19959;-61
2022/08/27 09:21:50;;;;;;;;;;;;;;;24.17;100.00;97633.06;5119017;28;19955;-61
2022/08/27 09:24:22;;;;;;;;;;;;;;;24.32;100.00;97639.63;5124287;28;19919;-62
2022/08/27 09:26:49;;;;;;;;;;;;;;;24.50;100.00;97629.88;5122492;28;20038;-62
2022/08/27 09:29:18;;;;;;;;;;;;;;;24.42;100.00;97630.84;5119657;28;19928;-61
2022/08/27 09:31:46;;;;;;;;;;;;;;;24.44;100.00;97627.78;5118954;28;19939;-61
2022/08/27 09:34:14;;;;;;;;;;;;;;;24.41;100.00;97625.78;5121473;28;19955;-62
2022/08/27 09:36:51;;;;;;;;;;;;;;;24.62;100.00;97621.50;5122204;28;19931;-61
2022/08/27 09:39:18;;;;;;;;;;;;;;;24.83;100.00;97628.53;5118856;28;20052;-62
2022/08/27 09:41:45;;;;;;;;;;;;;;;24.96;100.00;97625.28;5119066;28;19950;-61
2022/08/27 09:44:13;;;;;;;;;;;;;;;24.74;100.00;97623.28;5120875;28;19982;-60
2022/08/27 09:46:39;;;;;;;;;;;;;;;24.81;100.00;97612.53;5122477;28;19962;-61
2022/08/27 09:49:12;;;;;;;;;;;;;;;24.82;100.00;97621.53;5120544;28;19927;-61
2022/08/27 09:51:40;;;;;;;;;;;;;;;24.85;100.00;97613.38;5118695;28;19924;-62
2022/08/27 09:54:08;;;;;;;;;;;;;;;24.81;100.00;97607.06;5122584;28;19980;-61
2022/08/27 09:56:36;;;;;;;;;;;;;;;25.02;100.00;97598.44;5122294;28;19955;-62
2022/08/27 09:59:05;;;;;;;;;;;;;;;24.95;100.00;97595.59;5120924;28;19954;-63
2022/08/27 10:01:32;;;;;;;;;;;;;;;25.05;100.00;97600.44;5118577;28;19960;-62
2022/08/27 10:04:08;;;;;;;;;;;;;;;25.13;100.00;97593.94;5118754;28;19999;-63
2022/08/27 10:06:36;;;;;;;;;;;;;;;25.32;100.00;97602.06;5122110;28;19923;-63
2022/08/27 10:09:05;;;;;;;;;;;;;;;25.30;100.00;97596.19;5120730;28;19981;-62
2022/08/27 10:11:35;;;;;;;;;;;;;;;24.83;100.00;97603.97;5118551;28;19999;-63
2022/08/27 10:14:04;;;;;;;;;;;;;;;24.86;100.00;97611.44;5119078;28;19942;-62
2022/08/27 10:16:41;;;;;;;;;;;;;;;25.04;100.00;97598.88;5122206;28;19927;-62
2022/08/27 10:19:15;;;;;;;;;;;;;;;24.95;100.00;97601.84;5120267;28;19979;-63
2022/08/27 10:21:45;;;;;;;;;;;;;;;24.64;100.00;97602.81;5118603;28;19955;-63
2022/08/27 10:24:18;;;;;;;;;;;;;;;24.64;100.00;97611.00;5125159;28;20023;-63
2022/08/27 10:26:50;;;;;;;;;;;;;;;24.50;100.00;97613.47;5125937;28;19959;-62
2022/08/27 10:29:23;;;;;;;;;;;;;;;24.53;100.00;97623.69;5122571;28;19987;-61
2022/08/27 10:31:56;;;;;;;;;;;;;;;24.77;100.00;97621.75;5122337;28;19924;-63
2022/08/27 10:34:31;;;;;;;;;;;;;;;24.88;100.00;97622.78;5121998;28;19979;-62
2022/08/27 10:37:04;;;;;;;;;;;;;;;24.86;100.00;97627.81;5122303;28;19943;-62
2022/08/27 10:39:44;;;;;;;;;;;;;;;24.88;100.00;97618.09;5125688;28;19987;-63
2022/08/27 10:42:15;;;;;;;;;;;;;;;24.80;100.00;97621.03;5123314;28;19959;-62
2022/08/27 10:44:46;;;;;;;;;;;;;;;24.80;100.00;97626.50;5121747;28;19946;-62
2022/08/27 10:47:23;;;;;;;;;;;;;;;24.71;100.00;97627.53;5124216;28;19936;-62
2022/08/27 10:49:57;;;;;;;;;;;;;;;24.68;100.00;97627.47;5125501;28;19919;-62
2022/08/27 10:52:28;;;;;;;;;;;;;;;24.58;100.00;97625.31;5121932;28;19942;-62
2022/08/27 10:54:58;;;;;;;;;;;;;;;24.58;100.00;97620.66;5129880;28;19962;-61
2022/08/27 10:57:36;;;;;;;;;;;;;;;24.56;100.00;97620.22;5121631;28;19932;-61
2022/08/27 11:00:06;;;;;;;;;;;;;;;24.58;100.00;97619.84;5122494;28;19966;-62
2022/08/27 11:02:37;;;;;;;;;;;;;;;24.50;100.00;97629.06;5125084;28;19926;-61
2022/08/27 11:05:06;;;;;;;;;;;;;;;24.50;100.00;97624.41;5123872;28;19926;-62
2022/08/27 11:07:34;;;;;;;;;;;;;;;24.57;100.00;97624.53;5121668;28;19949;-62
2022/08/27 11:10:04;;;;;;;;;;;;;;;24.54;100.00;97624.47;5122108;28;19955;-61
2022/08/27 11:12:34;;;;;;;;;;;;;;;24.65;100.00;97626.25;5125232;28;19923;-62
2022/08/27 11:15:03;;;;;;;;;;;;;;;24.68;100.00;97622.00;5124177;28;19923;-61
2022/08/27 11:17:31;;;;;;;;;;;;;;;24.71;100.00;97627.53;5121611;28;19931;-62
2022/08/27 11:20:01;;;;;;;;;;;;;;;24.73;100.00;97620.94;5121639;28;20697;-62
2022/08/27 11:22:32;;;;;;;;;;;;;;;24.76;100.00;97620.22;5124943;28;19935;-61
2022/08/27 11:25:02;;;;;;;;;;;;;;;24.71;100.00;97622.06;5126414;28;19999;-62
2022/08/27 11:27:30;;;;;;;;;;;;;;;24.73;100.00;97620.94;5121385;28;20378;-61
2022/08/27 11:30:00;;;;;;;;;;;;;;;24.67;100.00;97615.75;5121313;28;19924;-61
2022/08/27 11:32:29;;;;;;;;;;;;;;;24.66;100.00;97621.59;5124765;28;19924;-61
2022/08/27 11:34:59;;;;;;;;;;;;;;;24.54;100.00;97619.78;5106262;28;19924;-63
2022/08/27 11:37:45;;;;;;;;;;;;;;;24.51;100.00;97614.28;5120782;28;19971;-63
2022/08/27 11:40:26;;;;;;;;;;;;;;;24.45;100.00;97616.47;5123056;28;19928;-61
2022/08/27 11:42:54;;;;;;;;;;;;;;;24.42;100.00;97608.22;5122730;28;19920;-62
2022/08/27 11:45:28;;;;;;;;;;;;;;;24.53;100.00;97607.31;5112548;28;19959;-62
2022/08/27 11:47:55;;;;;;;;;;;;;;;24.59;100.00;97608.59;5112340;28;19935;-61
2022/08/27 11:50:23;;;;;;;;;;;;;;;24.65;100.00;97611.81;5112279;28;20067;-62
2022/08/27 11:52:57;;;;;;;;;;;;;;;24.68;100.00;97613.81;5120680;28;20007;-63
2022/08/27 11:55:26;;;;;;;;;;;;;;;24.64;100.00;97616.47;5122793;28;19924;-62
2022/08/27 11:58:03;;;;;;;;;;;;;;;24.69;100.00;97618.13;5120795;28;19927;-62
2022/08/27 12:00:32;;;;;;;;;;;;;;;24.77;100.00;97619.03;5112406;28;19925;-62
2022/08/27 12:02:59;;;;;;;;;;;;;;;24.73;100.00;97633.41;5112021;28;19935;-62
2022/08/27 12:05:33;;;;;;;;;;;;;;;24.90;100.00;97623.22;5112186;28;19931;-62
2022/08/27 12:08:11;;;;;;;;;;;;;;;24.75;100.00;97615.88;5111997;28;19972;-61
2022/08/27 12:10:42;;;;;;;;;;;;;;;24.79;100.00;97624.94;5111962;28;19970;-62
2022/08/27 12:13:15;;;;;;;;;;;;;;;24.76;100.00;97629.16;5111827;28;19994;-63
2022/08/27 12:15:49;;;;;;;;;;;;;;;24.87;100.00;97618.47;5111882;28;19962;-61
2022/08/27 12:18:35;;;;;;;;;;;;;;;24.96;100.00;97617.09;5111785;28;19931;-62
2022/08/27 12:21:06;;;;;;;;;;;;;;;24.97;100.00;97621.41;5111773;28;20528;-62
2022/08/27 12:23:41;;;;;;;;;;;;;;;25.02;100.00;97617.56;5111741;28;19928;-62
2022/08/27 12:26:17;;;;;;;;;;;;;;;25.00;100.00;97623.41;5123704;28;19924;-61
2022/08/27 12:28:43;;;;;;;;;;;;;;;24.99;100.00;97621.81;5123761;28;20022;-61
2022/08/27 12:31:11;;;;;;;;;;;;;;;24.91;100.00;97614.66;5121494;28;19966;-61
2022/08/27 12:33:41;;;;;;;;;;;;;;;24.64;100.00;97602.81;5120017;28;19931;-62
2022/08/27 12:36:10;;;;;;;;;;;;;;;24.76;100.00;97603.81;5121091;28;19920;-62
2022/08/27 12:38:41;;;;;;;;;;;;;;;24.75;100.00;97607.69;5123001;28;19959;-63
2022/08/27 12:41:08;;;;;;;;;;;;;;;24.83;100.00;97598.50;5121276;28;19930;-62
2022/08/27 12:43:37;;;;;;;;;;;;;;;24.76;100.00;97598.34;5119276;28;19962;-64
2022/08/27 12:46:05;;;;;;;;;;;;;;;24.86;100.00;97595.03;5119562;28;20378;-64
2022/08/27 12:48:36;;;;;;;;;;;;;;;24.71;100.00;97597.50;5123265;28;19924;-64
2022/08/27 12:51:06;;;;;;;;;;;;;;;24.62;100.00;97579.75;5121879;28;19966;-64
2022/08/27 12:53:41;;;;;;;;;;;;;;;24.80;100.00;97582.81;5119447;28;20020;-64